Time;durP1;ratioP1;P1;durP2;ratioP2;P2;SDS_P1;SDS_P2;PMS_P1;PMS_P2;Temp;Humidity;BMP_temperature;BMP_pressure;BME280_temperature;BME280_humidity;BME280_pressure;Samples;Min_cycle;Max_cycle;Signal;HPM_P1;HPM_P2
2020/12/19 00:01:51;;;;;;;27.93;17.63;;;5.40;90.80;;;;;;5107564;28;20258;-81
2020/12/19 00:04:44;;;;;;;33.28;20.45;;;5.40;91.30;;;;;;5108274;28;20576;-81
2020/12/19 00:07:17;;;;;;;39.30;24.88;;;5.40;92.30;;;;;;5107151;28;20187;-81
2020/12/19 00:09:48;;;;;;;38.40;22.50;;;5.50;92.90;;;;;;5106654;28;20240;-81
2020/12/19 00:12:15;;;;;;;39.35;21.92;;;5.40;92.60;;;;;;5107034;28;20207;-81
2020/12/19 00:14:41;;;;;;;37.10;20.00;;;5.40;93.30;;;;;;5108187;28;20301;-81
2020/12/19 00:17:06;;;;;;;33.90;20.43;;;5.40;92.30;;;;;;5107995;28;20282;-81
2020/12/19 00:19:38;;;;;;;39.70;20.97;;;5.50;93.00;;;;;;5107457;28;20180;-81
2020/12/19 00:22:07;;;;;;;34.90;20.35;;;5.40;93.10;;;;;;5106925;28;20176;-81
2020/12/19 00:24:35;;;;;;;44.15;21.20;;;5.40;93.00;;;;;;5107599;28;20213;-81
2020/12/19 00:27:04;;;;;;;31.90;20.13;;;5.30;93.20;;;;;;5106853;28;20566;-81
2020/12/19 00:29:32;;;;;;;31.02;19.23;;;5.40;93.30;;;;;;5107685;28;20241;-81
2020/12/19 00:32:03;;;;;;;35.80;20.85;;;5.30;93.00;;;;;;5107570;28;20682;-81
2020/12/19 00:34:35;;;;;;;36.88;23.25;;;5.40;93.00;;;;;;5107209;28;20655;-81
2020/12/19 00:37:06;;;;;;;32.65;19.90;;;5.40;92.80;;;;;;5106535;28;20183;-81
2020/12/19 00:39:35;;;;;;;35.35;22.48;;;5.40;92.40;;;;;;5106474;28;20180;-81
2020/12/19 00:42:01;;;;;;;27.67;18.42;;;5.30;92.00;;;;;;5106201;28;20187;-81
2020/12/19 00:44:26;;;;;;;28.10;18.00;;;5.30;91.20;;;;;;5107368;28;20764;-81
2020/12/19 00:46:55;;;;;;;27.90;18.07;;;5.30;90.40;;;;;;5087581;28;20185;-81
2020/12/19 00:49:21;;;;;;;28.13;18.50;;;5.40;90.80;;;;;;5085579;28;20192;-81
2020/12/19 00:51:46;;;;;;;28.97;21.20;;;5.40;89.60;;;;;;5103182;28;20238;-81
2020/12/19 00:54:12;;;;;;;32.50;20.80;;;5.40;90.40;;;;;;5106238;28;20172;-81
2020/12/19 00:56:37;;;;;;;32.10;20.23;;;5.40;90.60;;;;;;5107139;28;20180;-81
2020/12/19 00:59:25;;;;;;;30.80;19.50;;;5.40;90.70;;;;;;5107585;28;20232;-81
2020/12/19 01:01:50;;;;;;;34.05;20.60;;;5.30;90.00;;;;;;5107322;28;20168;-81
2020/12/19 01:04:16;;;;;;;31.80;21.90;;;5.30;90.70;;;;;;5107898;28;20186;-81
2020/12/19 01:06:44;;;;;;;35.13;23.10;;;5.40;91.40;;;;;;5106689;28;20572;-81
2020/12/19 01:09:16;;;;;;;36.28;22.63;;;5.40;92.00;;;;;;5107697;28;20183;-81
2020/12/19 01:11:44;;;;;;;38.90;25.92;;;5.30;92.40;;;;;;5107331;28;20200;-81
2020/12/19 01:14:10;;;;;;;33.75;21.50;;;5.40;92.20;;;;;;5107353;28;20171;-81
2020/12/19 01:16:38;;;;;;;31.50;18.67;;;5.40;92.30;;;;;;5107015;28;20225;-81
2020/12/19 01:19:07;;;;;;;31.23;19.98;;;5.50;92.20;;;;;;5107382;28;20172;-81
2020/12/19 01:21:33;;;;;;;36.88;23.50;;;5.50;92.10;;;;;;5107496;28;20184;-81
2020/12/19 01:24:02;;;;;;;34.47;22.30;;;5.50;92.10;;;;;;5109470;28;20578;-81
2020/12/19 01:26:34;;;;;;;31.63;19.60;;;5.50;91.90;;;;;;5109824;28;20184;-81
2020/12/19 01:29:05;;;;;;;31.77;19.88;;;5.50;90.50;;;;;;5111379;28;20175;-81
2020/12/19 01:31:30;;;;;;;33.88;21.75;;;5.40;91.10;;;;;;5111429;28;20203;-81
2020/12/19 01:33:59;;;;;;;33.47;21.90;;;5.40;91.40;;;;;;5111474;28;20745;-81
2020/12/19 01:36:24;;;;;;;37.03;22.85;;;5.30;91.00;;;;;;5111539;28;20198;-82
2020/12/19 01:38:56;;;;;;;32.13;18.93;;;5.30;91.30;;;;;;5110804;28;20616;-81
2020/12/19 01:41:22;;;;;;;32.50;20.45;;;5.30;90.40;;;;;;5110725;28;20228;-81
2020/12/19 01:43:51;;;;;;;37.53;22.57;;;5.20;91.00;;;;;;5110256;28;20183;-81
2020/12/19 01:46:52;;;;;;;38.03;24.50;;;5.20;91.10;;;;;;5109633;28;20395;-81
2020/12/19 01:49:21;;;;;;;40.35;23.58;;;5.20;91.60;;;;;;5109211;28;20278;-81
2020/12/19 01:51:50;;;;;;;38.58;24.40;;;5.30;91.90;;;;;;5111418;28;20206;-81
2020/12/19 01:54:34;;;;;;;38.95;24.00;;;5.30;92.10;;;;;;5109435;28;20283;-81
2020/12/19 01:57:06;;;;;;;33.78;21.30;;;5.20;91.90;;;;;;5109555;28;20153;-81
2020/12/19 01:59:35;;;;;;;38.22;24.73;;;5.20;91.80;;;;;;5109986;28;20183;-81
2020/12/19 02:02:07;;;;;;;36.67;22.42;;;5.30;91.60;;;;;;5110788;28;20694;-81
2020/12/19 02:04:36;;;;;;;38.13;23.08;;;5.20;91.60;;;;;;5110835;28;20210;-81
2020/12/19 02:07:07;;;;;;;41.47;24.20;;;5.20;91.80;;;;;;5110933;28;20232;-81
2020/12/19 02:09:40;;;;;;;38.63;22.77;;;5.20;92.20;;;;;;5110637;28;20187;-81
2020/12/19 02:12:21;;;;;;;41.15;23.95;;;5.30;91.60;;;;;;5109604;28;20192;-81
2020/12/19 02:14:57;;;;;;;36.72;21.85;;;5.20;91.90;;;;;;5110225;28;20703;-81
2020/12/19 02:17:25;;;;;;;35.35;21.42;;;5.20;91.60;;;;;;5111113;28;20203;-81
2020/12/19 02:19:54;;;;;;;35.97;21.25;;;5.30;91.40;;;;;;5108989;28;20192;-81
2020/12/19 02:22:22;;;;;;;37.45;23.80;;;5.30;91.10;;;;;;5110140;28;20176;-81
2020/12/19 02:25:02;;;;;;;40.58;23.75;;;5.20;91.20;;;;;;5110040;28;20175;-82
2020/12/19 02:27:31;;;;;;;35.83;22.85;;;5.20;91.70;;;;;;5109931;28;20160;-81
2020/12/19 02:29:59;;;;;;;39.85;24.42;;;5.20;92.20;;;;;;5108033;28;20184;-81
2020/12/19 02:32:28;;;;;;;40.13;24.83;;;5.20;92.80;;;;;;5109181;28;20693;-81
2020/12/19 02:34:56;;;;;;;40.03;27.13;;;5.20;92.70;;;;;;5109337;27;20180;-81
2020/12/19 02:37:25;;;;;;;45.80;29.92;;;5.10;92.70;;;;;;5109621;28;20214;-81
2020/12/19 02:40:02;;;;;;;47.30;29.85;;;5.10;92.80;;;;;;5110526;28;20176;-81
2020/12/19 02:42:36;;;;;;;45.42;27.55;;;5.10;92.90;;;;;;5109465;28;20183;-81
2020/12/19 02:45:02;;;;;;;37.60;24.20;;;5.10;93.30;;;;;;5108230;28;20258;-81
2020/12/19 02:47:28;;;;;;;38.63;23.70;;;5.10;93.10;;;;;;5108255;28;20293;-81
2020/12/19 02:49:53;;;;;;;41.40;23.73;;;5.20;93.60;;;;;;5109174;28;20322;-81
2020/12/19 02:52:19;;;;;;;37.30;24.07;;;5.20;92.60;;;;;;5107981;28;20204;-81
2020/12/19 02:54:47;;;;;;;41.77;25.43;;;5.10;92.50;;;;;;5109306;28;20183;-81
2020/12/19 02:57:31;;;;;;;34.65;23.10;;;5.10;92.60;;;;;;5108859;28;20168;-81
2020/12/19 02:59:56;;;;;;;45.35;26.17;;;5.10;92.60;;;;;;5108995;27;20198;-80
2020/12/19 03:02:22;;;;;;;34.67;24.07;;;5.10;92.40;;;;;;5106623;28;20172;-80
2020/12/19 03:04:47;;;;;;;39.70;26.10;;;5.10;92.10;;;;;;5109033;28;20184;-79
2020/12/19 03:07:19;;;;;;;37.27;24.90;;;5.10;92.20;;;;;;5107997;28;20736;-79
2020/12/19 03:09:44;;;;;;;36.08;23.17;;;5.10;92.50;;;;;;5108826;28;20183;-80
2020/12/19 03:12:10;;;;;;;30.40;21.97;;;5.10;92.40;;;;;;5108869;28;20201;-79
2020/12/19 03:14:39;;;;;;;32.07;21.67;;;5.10;92.10;;;;;;5108267;27;20225;-80
2020/12/19 03:17:04;;;;;;;34.22;22.33;;;5.10;91.90;;;;;;5106892;28;20256;-79
2020/12/19 03:19:30;;;;;;;34.60;20.83;;;5.10;91.40;;;;;;5108994;28;20183;-80
2020/12/19 03:21:58;;;;;;;30.93;21.30;;;5.10;91.40;;;;;;5108634;28;20187;-80
2020/12/19 03:24:24;;;;;;;33.60;20.35;;;5.00;91.20;;;;;;5109103;28;20175;-80
2020/12/19 03:26:50;;;;;;;32.93;20.20;;;5.10;91.40;;;;;;5106680;28;20190;-79
2020/12/19 03:29:18;;;;;;;35.17;20.97;;;5.00;91.50;;;;;;5108877;28;20663;-79
2020/12/19 03:31:47;;;;;;;33.28;21.13;;;5.00;91.20;;;;;;5108665;28;20210;-79
2020/12/19 03:34:18;;;;;;;33.75;20.67;;;5.10;91.60;;;;;;5107089;28;20167;-79
2020/12/19 03:36:52;;;;;;;36.72;21.63;;;5.10;91.70;;;;;;5108417;28;20176;-80
2020/12/19 03:39:21;;;;;;;35.88;21.02;;;5.10;91.60;;;;;;5109022;28;20963;-80
2020/12/19 03:41:55;;;;;;;28.30;19.27;;;5.10;91.90;;;;;;5108772;28;20184;-80
2020/12/19 03:44:21;;;;;;;28.77;19.02;;;5.10;90.70;;;;;;5107404;28;20642;-80
2020/12/19 03:46:47;;;;;;;31.27;19.83;;;5.20;92.20;;;;;;5107970;28;20191;-80
2020/12/19 03:49:12;;;;;;;35.13;22.17;;;5.20;91.50;;;;;;5108125;27;20541;-80
2020/12/19 03:51:41;;;;;;;39.70;23.47;;;5.10;91.00;;;;;;5107252;28;20203;-80
2020/12/19 03:54:12;;;;;;;39.35;23.35;;;5.10;91.70;;;;;;5108505;28;20172;-80
2020/12/19 03:59:59;;;;;;;16.30;12.40;;;5.10;90.50;;;;;;5108083;28;20240;-80
2020/12/19 04:02:24;;;;;;;22.48;15.65;;;5.20;88.70;;;;;;5107717;28;20176;-80
2020/12/19 04:04:50;;;;;;;29.23;18.10;;;5.20;90.20;;;;;;5107890;28;20802;-80
2020/12/19 04:07:15;;;;;;;25.93;16.87;;;5.10;89.70;;;;;;5105307;28;20176;-80
2020/12/19 04:09:56;;;;;;;28.10;19.00;;;5.00;90.70;;;;;;5107500;28;20192;-80
2020/12/19 04:12:24;;;;;;;28.17;17.95;;;5.10;90.80;;;;;;5108249;28;20573;-80
2020/12/19 04:14:50;;;;;;;29.95;19.23;;;5.10;90.30;;;;;;5107324;27;20662;-80
2020/12/19 04:17:18;;;;;;;27.77;18.77;;;5.10;90.70;;;;;;5106291;28;20171;-80
2020/12/19 04:19:44;;;;;;;27.45;18.23;;;5.10;90.90;;;;;;5107531;28;20539;-80
2020/12/19 04:22:13;;;;;;;27.10;18.97;;;5.10;91.10;;;;;;5107089;28;20172;-80
2020/12/19 04:24:42;;;;;;;35.38;22.38;;;5.10;90.90;;;;;;5105318;28;20207;-80
2020/12/19 04:27:08;;;;;;;38.15;24.30;;;5.10;90.30;;;;;;5107790;28;20518;-80
2020/12/19 04:29:42;;;;;;;37.20;22.33;;;5.10;90.80;;;;;;5105736;28;20190;-80
2020/12/19 04:32:11;;;;;;;33.50;20.63;;;5.10;90.60;;;;;;5106946;28;20294;-80
2020/12/19 04:34:45;;;;;;;31.35;20.00;;;5.20;90.60;;;;;;5105690;28;20226;-80
2020/12/19 04:37:11;;;;;;;33.33;21.13;;;5.20;90.80;;;;;;5105920;28;20659;-80
2020/12/19 04:39:39;;;;;;;28.47;19.20;;;5.30;90.80;;;;;;5106863;28;20179;-80
2020/12/19 04:42:08;;;;;;;32.40;21.25;;;5.20;90.40;;;;;;5107537;28;20183;-80
2020/12/19 04:44:40;;;;;;;29.52;20.17;;;5.30;91.00;;;;;;5107051;28;20222;-80
2020/12/19 04:47:08;;;;;;;32.42;20.40;;;5.20;90.50;;;;;;5105889;28;20172;-80
2020/12/19 04:49:36;;;;;;;30.33;19.02;;;5.20;91.50;;;;;;5107047;28;20707;-80
2020/12/19 04:52:03;;;;;;;32.22;21.15;;;5.20;91.00;;;;;;5107302;28;20195;-80
2020/12/19 04:54:39;;;;;;;32.60;20.40;;;5.30;90.80;;;;;;5106961;28;20749;-80
2020/12/19 04:57:04;;;;;;;30.95;20.77;;;5.30;90.50;;;;;;5104567;28;20554;-80
2020/12/19 04:59:36;;;;;;;31.50;20.37;;;5.30;91.20;;;;;;5105535;28;20187;-80
2020/12/19 05:02:01;;;;;;;28.67;19.75;;;5.30;90.30;;;;;;5107587;28;20180;-80
2020/12/19 05:04:30;;;;;;;32.33;19.40;;;5.40;90.70;;;;;;5105578;28;20229;-80
2020/12/19 05:07:08;;;;;;;31.15;20.17;;;5.20;89.90;;;;;;5106875;28;20263;-80
2020/12/19 05:09:39;;;;;;;28.83;19.30;;;5.20;89.50;;;;;;5107178;28;20179;-80
2020/12/19 05:12:16;;;;;;;29.80;19.17;;;5.20;90.00;;;;;;5105901;28;20206;-80
2020/12/19 05:14:45;;;;;;;30.40;19.05;;;5.10;89.80;;;;;;5105772;28;20187;-80
2020/12/19 05:17:10;;;;;;;31.13;21.10;;;5.20;91.10;;;;;;5106879;28;20168;-80
2020/12/19 05:19:45;;;;;;;43.03;25.77;;;5.20;91.30;;;;;;5106963;28;20187;-80
2020/12/19 05:22:21;;;;;;;35.28;22.10;;;5.30;91.10;;;;;;5107639;28;20304;-80
2020/12/19 05:24:59;;;;;;;31.33;19.63;;;5.20;90.80;;;;;;5106724;28;20534;-80
2020/12/19 05:27:28;;;;;;;27.20;18.42;;;5.20;90.20;;;;;;5106853;28;20156;-80
2020/12/19 05:29:56;;;;;;;32.20;20.23;;;5.20;90.80;;;;;;5104792;28;20230;-80
2020/12/19 05:32:28;;;;;;;33.22;21.83;;;5.20;90.60;;;;;;5106463;28;20239;-80
2020/12/19 05:34:57;;;;;;;35.40;22.23;;;5.20;91.10;;;;;;5106596;28;20198;-80
2020/12/19 05:37:22;;;;;;;37.38;23.10;;;5.20;91.30;;;;;;5105597;28;20182;-80
2020/12/19 05:39:58;;;;;;;38.37;22.70;;;5.20;90.60;;;;;;5106843;28;20180;-80
2020/12/19 05:42:24;;;;;;;34.95;23.02;;;5.20;90.80;;;;;;5105264;28;20175;-80
2020/12/19 05:44:50;;;;;;;35.92;22.67;;;5.20;90.90;;;;;;5105190;28;20634;-80
2020/12/19 05:47:21;;;;;;;33.47;20.80;;;5.20;91.50;;;;;;5106277;28;20211;-80
2020/12/19 05:49:50;;;;;;;28.55;18.98;;;5.20;91.00;;;;;;5105335;28;20434;-80
2020/12/19 05:52:18;;;;;;;30.58;20.60;;;5.20;90.90;;;;;;5086183;28;20279;-81
2020/12/19 05:54:45;;;;;;;31.88;20.05;;;5.20;90.80;;;;;;5086802;28;20187;-80
2020/12/19 05:57:16;;;;;;;30.48;19.10;;;5.10;91.10;;;;;;5086379;28;20164;-80
2020/12/19 05:59:44;;;;;;;29.80;18.70;;;5.10;91.50;;;;;;5084952;28;20181;-80
2020/12/19 06:02:13;;;;;;;30.77;19.77;;;5.10;91.50;;;;;;5085439;28;20183;-80
2020/12/19 06:04:39;;;;;;;28.50;20.25;;;5.10;92.00;;;;;;5086331;28;20181;-80
2020/12/19 06:07:39;;;;;;;31.77;20.70;;;5.10;92.20;;;;;;5084729;28;20199;-80
2020/12/19 06:10:10;;;;;;;32.28;21.27;;;5.20;92.90;;;;;;5087543;28;20164;-80
2020/12/19 06:12:53;;;;;;;31.15;20.35;;;5.20;91.60;;;;;;5089198;28;20742;-80
2020/12/19 06:15:43;;;;;;;34.35;21.63;;;5.20;91.60;;;;;;5089591;28;20176;-80
2020/12/19 06:18:28;;;;;;;34.10;22.33;;;5.20;91.70;;;;;;5089092;28;20184;-80
2020/12/19 06:20:57;;;;;;;31.77;21.67;;;5.10;92.70;;;;;;5088134;28;20603;-80
2020/12/19 06:23:32;;;;;;;32.72;22.13;;;5.20;92.00;;;;;;5087666;28;20187;-80
2020/12/19 06:26:01;;;;;;;36.67;25.00;;;5.10;92.20;;;;;;5090067;28;20573;-80
2020/12/19 06:28:48;;;;;;;39.65;26.50;;;5.20;92.60;;;;;;5089513;28;20176;-80
2020/12/19 06:31:24;;;;;;;43.58;27.95;;;5.10;92.60;;;;;;5089479;28;20698;-80
2020/12/19 06:33:53;;;;;;;37.50;25.50;;;5.10;93.00;;;;;;5088509;28;20176;-80
2020/12/19 06:36:27;;;;;;;40.00;25.02;;;5.10;92.90;;;;;;5088036;28;20186;-80
2020/12/19 06:39:14;;;;;;;42.03;27.35;;;5.10;93.30;;;;;;5089754;28;20507;-80
2020/12/19 06:41:49;;;;;;;39.35;24.55;;;5.10;93.40;;;;;;5089571;28;20168;-81
2020/12/19 06:44:33;;;;;;;37.83;23.70;;;5.20;93.50;;;;;;5089165;28;20267;-81
2020/12/19 06:47:18;;;;;;;37.10;23.13;;;5.10;93.70;;;;;;5089172;28;20188;-81
2020/12/19 06:49:51;;;;;;;38.22;23.55;;;5.10;93.70;;;;;;5087535;28;20253;-80
2020/12/19 06:52:25;;;;;;;38.03;23.52;;;5.00;94.20;;;;;;5088732;28;20581;-80
2020/12/19 06:54:50;;;;;;;37.63;23.20;;;5.10;94.50;;;;;;5088885;28;20156;-80
2020/12/19 06:57:37;;;;;;;42.60;25.90;;;5.10;94.50;;;;;;5087290;28;20180;-80
2020/12/19 07:00:22;;;;;;;37.03;24.05;;;5.10;94.90;;;;;;5089245;28;20188;-80
2020/12/19 07:02:58;;;;;;;42.20;24.98;;;5.00;94.70;;;;;;5088925;28;20181;-80
2020/12/19 07:05:29;;;;;;;44.42;27.13;;;5.10;94.70;;;;;;5088662;28;20187;-80
2020/12/19 07:08:18;;;;;;;42.25;25.23;;;5.10;94.90;;;;;;5086621;28;20187;-80
2020/12/19 07:10:51;;;;;;;42.78;26.98;;;5.00;94.90;;;;;;5088460;28;20205;-80
2020/12/19 07:13:26;;;;;;;47.30;27.00;;;5.10;95.00;;;;;;5087285;28;20271;-80
2020/12/19 07:15:52;;;;;;;39.88;24.40;;;5.10;94.80;;;;;;5087411;28;20738;-80
2020/12/19 07:18:28;;;;;;;40.45;24.58;;;5.10;95.20;;;;;;5088384;28;20257;-80
2020/12/19 07:21:15;;;;;;;39.05;23.80;;;5.10;94.90;;;;;;5088674;28;20165;-80
2020/12/19 07:23:40;;;;;;;50.15;32.97;;;5.10;95.10;;;;;;5087498;28;20176;-80
2020/12/19 07:26:10;;;;;;;51.70;32.50;;;5.10;95.00;;;;;;5087288;28;20529;-80
2020/12/19 07:28:44;;;;;;;48.22;31.23;;;5.10;95.00;;;;;;5088617;28;20185;-80
2020/12/19 07:31:12;;;;;;;56.00;37.97;;;5.10;94.90;;;;;;5088193;28;20207;-80
2020/12/19 07:33:39;;;;;;;52.45;32.78;;;5.10;95.40;;;;;;5087799;28;20177;-80
2020/12/19 07:36:08;;;;;;;53.17;30.95;;;5.20;95.10;;;;;;5087426;28;20180;-80
2020/12/19 07:38:36;;;;;;;61.33;37.45;;;5.20;94.90;;;;;;5086529;28;20516;-80
2020/12/19 07:41:16;;;;;;;77.15;45.03;;;5.10;95.00;;;;;;5088012;28;20173;-80
2020/12/19 07:43:42;;;;;;;50.72;31.90;;;5.10;95.40;;;;;;5086859;28;20573;-80
2020/12/19 07:46:11;;;;;;;46.03;26.97;;;5.10;95.10;;;;;;5102385;28;20187;-80
2020/12/19 07:48:52;;;;;;;44.53;26.20;;;5.10;95.00;;;;;;5107937;28;20548;-81
2020/12/19 07:51:22;;;;;;;45.60;28.50;;;5.10;95.10;;;;;;5107731;28;20345;-80
2020/12/19 07:53:47;;;;;;;43.75;26.23;;;5.20;95.30;;;;;;5108492;27;20176;-80
2020/12/19 07:56:13;;;;;;;49.13;26.37;;;5.10;95.20;;;;;;5107179;28;20586;-80
2020/12/19 07:58:54;;;;;;;41.95;25.33;;;5.10;95.40;;;;;;5108189;28;20171;-80
2020/12/19 08:01:26;;;;;;;51.35;30.13;;;5.20;95.10;;;;;;5107117;28;20194;-81
2020/12/19 08:04:03;;;;;;;57.42;31.80;;;5.20;95.00;;;;;;5108410;28;20183;-81
2020/12/19 08:06:47;;;;;;;61.65;31.52;;;5.20;95.20;;;;;;5107775;27;20593;-80
2020/12/19 08:09:25;;;;;;;56.40;30.35;;;5.20;95.10;;;;;;5108483;28;20178;-81
2020/12/19 08:11:52;;;;;;;47.05;26.35;;;5.20;95.40;;;;;;5106399;28;20301;-81
2020/12/19 08:14:25;;;;;;;47.55;28.02;;;5.20;95.40;;;;;;5104421;28;20176;-81
2020/12/19 08:16:57;;;;;;;49.50;26.80;;;5.20;95.60;;;;;;5105503;28;20581;-80
2020/12/19 08:19:38;;;;;;;46.05;28.40;;;5.20;95.20;;;;;;5108045;28;20160;-81
2020/12/19 08:22:06;;;;;;;47.55;26.75;;;5.20;95.80;;;;;;5107658;28;20179;-81
2020/12/19 08:24:35;;;;;;;49.58;30.63;;;5.20;95.00;;;;;;5106456;28;20736;-81
2020/12/19 08:27:51;;;;;;;49.63;29.52;;;5.30;95.70;;;;;;5107619;28;20290;-81
2020/12/19 08:30:31;;;;;;;51.35;29.85;;;5.30;95.10;;;;;;5107191;28;20251;-81
2020/12/19 08:33:12;;;;;;;54.75;30.08;;;5.20;95.20;;;;;;5106883;28;20618;-81
2020/12/19 08:35:48;;;;;;;53.58;30.77;;;5.30;95.30;;;;;;5107294;28;20167;-81
2020/12/19 08:38:21;;;;;;;52.28;30.20;;;5.30;94.80;;;;;;5107457;28;20225;-81
2020/12/19 08:41:04;;;;;;;62.78;40.95;;;5.30;95.10;;;;;;5107379;28;20180;-81
2020/12/19 08:43:34;;;;;;;52.58;30.83;;;5.40;95.20;;;;;;5107960;28;20591;-81
2020/12/19 08:46:09;;;;;;;60.45;37.50;;;5.30;95.10;;;;;;5105337;28;20678;-81
2020/12/19 08:48:41;;;;;;;65.70;39.08;;;5.40;95.50;;;;;;5106902;28;20179;-80
2020/12/19 08:51:22;;;;;;;50.83;32.33;;;5.40;94.90;;;;;;5106899;28;20261;-81
2020/12/19 08:53:53;;;;;;;49.10;29.05;;;5.40;94.90;;;;;;5107338;28;20290;-80
2020/12/19 08:56:31;;;;;;;42.90;26.88;;;5.30;94.70;;;;;;5107053;28;20534;-81
2020/12/19 08:58:59;;;;;;;52.20;29.92;;;5.40;94.60;;;;;;5107579;28;20568;-81
2020/12/19 09:01:30;;;;;;;45.17;27.20;;;5.40;94.70;;;;;;5106454;28;20167;-81
2020/12/19 09:04:09;;;;;;;52.45;29.17;;;5.50;94.40;;;;;;5105439;28;20278;-81
2020/12/19 09:06:53;;;;;;;53.88;32.30;;;5.40;94.40;;;;;;5106713;28;20270;-81
2020/12/19 09:09:27;;;;;;;54.22;33.60;;;5.40;94.60;;;;;;5106751;28;20550;-81
2020/12/19 09:12:09;;;;;;;52.92;32.67;;;5.50;94.30;;;;;;5106860;28;20219;-81
2020/12/19 09:14:34;;;;;;;42.17;26.95;;;5.50;94.30;;;;;;5106668;28;20598;-81
2020/12/19 09:17:06;;;;;;;42.10;24.83;;;5.40;94.70;;;;;;5106087;28;20179;-81
2020/12/19 09:19:34;;;;;;;48.80;27.17;;;5.50;94.40;;;;;;5107175;28;20177;-81
2020/12/19 09:22:03;;;;;;;47.88;28.63;;;5.50;94.40;;;;;;5107793;28;20207;-81
2020/12/19 09:24:28;;;;;;;48.35;29.02;;;5.50;94.40;;;;;;5107462;28;20208;-81
2020/12/19 09:27:00;;;;;;;44.77;26.07;;;5.50;94.80;;;;;;5105556;28;20758;-81
2020/12/19 09:29:31;;;;;;;43.05;25.02;;;5.50;94.40;;;;;;5106018;28;20264;-81
2020/12/19 09:32:03;;;;;;;41.70;24.70;;;5.50;95.10;;;;;;5105518;28;20207;-81
2020/12/19 09:34:29;;;;;;;42.65;23.08;;;5.50;94.20;;;;;;5106181;28;20175;-81
2020/12/19 09:36:57;;;;;;;41.60;24.13;;;5.50;94.40;;;;;;5106793;28;20702;-81
2020/12/19 09:39:23;;;;;;;44.58;26.42;;;5.50;94.80;;;;;;5105609;28;20184;-81
2020/12/19 09:41:54;;;;;;;47.10;26.27;;;5.50;94.30;;;;;;5105965;28;20314;-81
2020/12/19 09:44:22;;;;;;;44.75;27.15;;;5.50;94.70;;;;;;5108501;28;20180;-81
2020/12/19 09:46:51;;;;;;;48.30;27.23;;;5.50;94.60;;;;;;5109639;28;20299;-80
2020/12/19 09:49:16;;;;;;;50.22;28.55;;;5.50;94.60;;;;;;5110949;28;20184;-81
2020/12/19 09:51:45;;;;;;;54.47;28.87;;;5.50;94.80;;;;;;5110280;28;20703;-81
2020/12/19 09:54:13;;;;;;;43.65;25.02;;;5.50;94.80;;;;;;5111268;28;20183;-81
2020/12/19 09:56:48;;;;;;;39.78;25.17;;;5.60;94.40;;;;;;5111031;28;20179;-81
2020/12/19 09:59:20;;;;;;;45.38;25.80;;;5.60;94.40;;;;;;5110900;28;20518;-81
2020/12/19 10:01:48;;;;;;;45.45;25.20;;;5.60;94.40;;;;;;5109562;28;20537;-82
2020/12/19 10:04:14;;;;;;;40.70;23.65;;;5.60;94.50;;;;;;5110439;28;20171;-80
2020/12/19 10:06:42;;;;;;;45.27;23.80;;;5.60;94.50;;;;;;5109301;28;20180;-82
2020/12/19 10:09:22;;;;;;;39.03;24.05;;;5.60;94.50;;;;;;5111409;28;20581;-82
2020/12/19 10:11:48;;;;;;;40.15;22.23;;;5.70;94.50;;;;;;5110534;28;20191;-80
2020/12/19 10:14:13;;;;;;;45.10;24.63;;;5.70;94.60;;;;;;5110692;28;20172;-82
2020/12/19 10:16:42;;;;;;;45.47;26.77;;;5.70;94.90;;;;;;5110313;28;20204;-80
2020/12/19 10:19:10;;;;;;;38.17;23.70;;;5.80;94.00;;;;;;5109067;28;20184;-80
2020/12/19 10:21:36;;;;;;;44.08;26.98;;;5.70;93.80;;;;;;5109277;28;20603;-80
2020/12/19 10:24:01;;;;;;;50.10;26.07;;;5.80;94.10;;;;;;5110548;28;20183;-80
2020/12/19 10:26:33;;;;;;;40.20;23.20;;;5.80;94.00;;;;;;5110201;28;20518;-80
2020/12/19 10:29:07;;;;;;;43.15;24.70;;;5.80;93.60;;;;;;5108493;28;20183;-80
2020/12/19 10:31:33;;;;;;;41.60;22.63;;;5.80;93.60;;;;;;5110420;28;20591;-81
2020/12/19 10:33:59;;;;;;;43.23;24.50;;;5.70;93.80;;;;;;5109994;28;20233;-81
2020/12/19 10:36:36;;;;;;;42.33;25.20;;;5.80;93.80;;;;;;5109903;28;20175;-80
2020/12/19 10:39:05;;;;;;;44.83;24.92;;;5.90;94.00;;;;;;5107878;28;20402;-81
2020/12/19 10:41:34;;;;;;;44.90;25.80;;;5.80;93.50;;;;;;5109582;28;20179;-81
2020/12/19 10:43:59;;;;;;;50.40;30.10;;;5.80;93.80;;;;;;5110221;28;20180;-81
2020/12/19 10:46:30;;;;;;;53.73;29.50;;;5.70;93.60;;;;;;5109876;28;20191;-81
2020/12/19 10:48:58;;;;;;;42.95;25.48;;;5.80;94.10;;;;;;5109416;28;20180;-81
2020/12/19 10:51:37;;;;;;;41.65;24.48;;;5.80;93.80;;;;;;5109350;28;20782;-81
2020/12/19 10:54:09;;;;;;;39.97;25.40;;;5.80;93.80;;;;;;5109633;28;20184;-81
2020/12/19 10:56:41;;;;;;;36.15;23.25;;;5.90;93.60;;;;;;5108387;28;20526;-81
2020/12/19 10:59:06;;;;;;;42.95;24.20;;;5.90;93.50;;;;;;5110137;28;20176;-81
2020/12/19 11:01:32;;;;;;;41.30;27.20;;;5.90;92.90;;;;;;5109258;28;20191;-81
2020/12/19 11:03:57;;;;;;;43.10;25.43;;;5.90;93.30;;;;;;5109588;28;20229;-81
2020/12/19 11:06:27;;;;;;;38.43;23.30;;;5.90;94.00;;;;;;5107948;28;20180;-81
2020/12/19 11:08:54;;;;;;;39.58;25.58;;;5.90;93.00;;;;;;5108013;28;20532;-81
2020/12/19 11:11:20;;;;;;;36.47;23.20;;;5.90;93.10;;;;;;5108522;28;20193;-81
2020/12/19 11:13:52;;;;;;;43.65;26.35;;;5.90;93.30;;;;;;5109370;28;20545;-81
2020/12/19 11:16:31;;;;;;;45.55;27.52;;;5.90;93.70;;;;;;5108227;28;20172;-81
2020/12/19 11:19:03;;;;;;;52.00;27.98;;;5.80;94.30;;;;;;5109154;28;20179;-81
2020/12/19 11:21:34;;;;;;;41.83;26.08;;;5.80;94.20;;;;;;5109501;28;20164;-81
2020/12/19 11:23:59;;;;;;;42.63;25.35;;;5.80;94.10;;;;;;5107660;28;20551;-81
2020/12/19 11:26:28;;;;;;;38.07;23.03;;;5.80;93.90;;;;;;5109373;27;20179;-80
2020/12/19 11:28:56;;;;;;;45.75;24.98;;;5.80;94.00;;;;;;5108288;28;20184;-81
2020/12/19 11:31:28;;;;;;;42.83;24.45;;;5.80;93.70;;;;;;5109433;28;20207;-81
2020/12/19 11:34:00;;;;;;;37.75;23.50;;;5.80;93.90;;;;;;5109845;28;20283;-81
2020/12/19 11:36:25;;;;;;;42.33;24.30;;;5.80;93.90;;;;;;5108996;28;20167;-81
2020/12/19 11:38:54;;;;;;;38.50;22.20;;;5.80;93.60;;;;;;5107713;28;20288;-81
2020/12/19 11:41:29;;;;;;;37.97;23.77;;;5.80;93.40;;;;;;5108822;28;20251;-81
2020/12/19 11:43:57;;;;;;;41.00;24.35;;;5.80;94.10;;;;;;5107688;28;20179;-81
2020/12/19 11:46:35;;;;;;;36.33;23.17;;;5.90;93.80;;;;;;5108507;28;20171;-81
2020/12/19 11:49:00;;;;;;;42.30;25.15;;;5.90;94.20;;;;;;5109383;28;20493;-81
2020/12/19 11:51:31;;;;;;;39.70;24.43;;;6.00;93.80;;;;;;5108743;28;20274;-81
2020/12/19 11:54:03;;;;;;;52.67;31.58;;;5.90;93.50;;;;;;5108642;28;20183;-81
2020/12/19 11:56:29;;;;;;;51.90;31.50;;;5.90;93.50;;;;;;5108230;28;20183;-81
2020/12/19 11:59:04;;;;;;;45.67;29.02;;;5.90;93.60;;;;;;5108093;28;20179;-81
2020/12/19 12:01:30;;;;;;;42.10;25.80;;;5.90;93.70;;;;;;5108195;28;20160;-81
2020/12/19 12:03:59;;;;;;;43.77;27.20;;;5.90;94.00;;;;;;5108180;28;20670;-81
2020/12/19 12:06:28;;;;;;;40.17;23.88;;;5.90;93.50;;;;;;5106336;28;20179;-81
2020/12/19 12:09:00;;;;;;;38.65;23.80;;;5.90;93.60;;;;;;5107476;28;20259;-81
2020/12/19 12:11:31;;;;;;;42.90;24.63;;;6.00;93.30;;;;;;5106439;27;20231;-81
2020/12/19 12:13:58;;;;;;;34.83;21.52;;;5.90;93.50;;;;;;5106546;28;20183;-81
2020/12/19 12:16:30;;;;;;;39.65;21.70;;;6.00;93.10;;;;;;5104087;28;20172;-81
2020/12/19 12:18:57;;;;;;;40.42;26.48;;;6.00;92.90;;;;;;5105636;27;20188;-81
2020/12/19 12:21:34;;;;;;;36.60;24.67;;;6.00;93.10;;;;;;5106593;28;20206;-81
2020/12/19 12:24:00;;;;;;;42.75;25.45;;;6.00;92.80;;;;;;5106500;27;20194;-81
2020/12/19 12:26:34;;;;;;;39.53;24.17;;;6.00;92.70;;;;;;5105401;28;20516;-81
2020/12/19 12:29:00;;;;;;;40.25;24.08;;;6.00;92.80;;;;;;5107286;27;20658;-81
2020/12/19 12:31:31;;;;;;;40.67;24.75;;;6.00;92.70;;;;;;5107174;28;20618;-81
2020/12/19 12:34:04;;;;;;;50.72;30.38;;;6.00;92.80;;;;;;5105281;28;20216;-81
2020/12/19 12:36:36;;;;;;;46.75;25.40;;;6.00;93.00;;;;;;5107320;28;20163;-82
2020/12/19 12:39:03;;;;;;;47.35;27.25;;;6.00;92.70;;;;;;5107914;28;20210;-81
2020/12/19 12:41:29;;;;;;;38.15;26.08;;;6.00;92.90;;;;;;5107346;28;20179;-81
2020/12/19 12:43:58;;;;;;;36.97;22.63;;;6.00;93.30;;;;;;5107853;28;20705;-81
2020/12/19 12:46:29;;;;;;;40.22;23.23;;;6.00;93.00;;;;;;5091356;28;20255;-81
2020/12/19 12:49:01;;;;;;;51.53;31.90;;;5.90;93.70;;;;;;5086336;28;20184;-81
2020/12/19 12:51:29;;;;;;;59.35;37.67;;;5.90;93.90;;;;;;5099989;28;20231;-81
2020/12/19 12:53:58;;;;;;;53.50;35.92;;;6.00;93.90;;;;;;5105797;28;20172;-81
2020/12/19 12:56:31;;;;;;;56.15;36.33;;;6.00;93.80;;;;;;5105770;28;20720;-81
2020/12/19 12:58:59;;;;;;;45.97;28.45;;;6.00;94.10;;;;;;5106098;28;20567;-81